sensor_id;sensor_type;location;lat;lon;timestamp;P1;durP1;ratioP1;P2;durP2;ratioP2
50549;SDS011;36505;52.512;13.460;2022-07-18T00:02:08;16.00;;;5.65;;
50549;SDS011;36505;52.512;13.460;2022-07-18T00:04:33;14.85;;;5.80;;
50549;SDS011;36505;52.512;13.460;2022-07-18T00:06:59;12.98;;;5.63;;
50549;SDS011;36505;52.512;13.460;2022-07-18T00:09:24;11.82;;;5.10;;
50549;SDS011;36505;52.512;13.460;2022-07-18T00:11:50;12.48;;;4.97;;
50549;SDS011;36505;52.512;13.460;2022-07-18T00:14:17;10.77;;;5.25;;
50549;SDS011;36505;52.512;13.460;2022-07-18T00:16:43;11.88;;;4.55;;
50549;SDS011;36505;52.512;13.460;2022-07-18T00:19:09;11.73;;;5.13;;
50549;SDS011;36505;52.512;13.460;2022-07-18T00:21:34;10.55;;;4.80;;
50549;SDS011;36505;52.512;13.460;2022-07-18T00:24:00;14.10;;;4.90;;
50549;SDS011;36505;52.512;13.460;2022-07-18T00:26:25;10.80;;;4.43;;
50549;SDS011;36505;52.512;13.460;2022-07-18T00:28:51;10.32;;;4.93;;
50549;SDS011;36505;52.512;13.460;2022-07-18T00:31:16;10.57;;;3.75;;
50549;SDS011;36505;52.512;13.460;2022-07-18T00:33:42;9.65;;;4.35;;
50549;SDS011;36505;52.512;13.460;2022-07-18T00:36:07;12.00;;;3.58;;
50549;SDS011;36505;52.512;13.460;2022-07-18T00:38:32;9.43;;;4.45;;
50549;SDS011;36505;52.512;13.460;2022-07-18T00:40:58;7.10;;;3.45;;
50549;SDS011;36505;52.512;13.460;2022-07-18T00:43:23;9.73;;;3.90;;
50549;SDS011;36505;52.512;13.460;2022-07-18T00:45:49;6.72;;;3.10;;
50549;SDS011;36505;52.512;13.460;2022-07-18T00:48:14;9.13;;;3.25;;
50549;SDS011;36505;52.512;13.460;2022-07-18T00:50:40;8.57;;;2.95;;
50549;SDS011;36505;52.512;13.460;2022-07-18T00:53:07;9.48;;;3.25;;
50549;SDS011;36505;52.512;13.460;2022-07-18T00:55:33;9.07;;;3.17;;
50549;SDS011;36505;52.512;13.460;2022-07-18T00:57:59;8.30;;;3.33;;
50549;SDS011;36505;52.512;13.460;2022-07-18T01:00:24;7.00;;;3.15;;
50549;SDS011;36505;52.512;13.460;2022-07-18T01:03:09;8.75;;;2.97;;
50549;SDS011;36505;52.512;13.460;2022-07-18T01:05:34;3.83;;;2.15;;
50549;SDS011;36505;52.512;13.460;2022-07-18T01:08:00;4.95;;;2.58;;
50549;SDS011;36505;52.512;13.460;2022-07-18T01:10:26;7.57;;;2.28;;
50549;SDS011;36505;52.512;13.460;2022-07-18T01:12:52;8.20;;;3.00;;
50549;SDS011;36505;52.512;13.460;2022-07-18T01:15:17;6.60;;;2.13;;
50549;SDS011;36505;52.512;13.460;2022-07-18T01:17:43;8.63;;;2.72;;
50549;SDS011;36505;52.512;13.460;2022-07-18T01:20:08;10.20;;;1.92;;
50549;SDS011;36505;52.512;13.460;2022-07-18T01:22:34;6.00;;;2.13;;
50549;SDS011;36505;52.512;13.460;2022-07-18T01:25:00;4.28;;;2.03;;
50549;SDS011;36505;52.512;13.460;2022-07-18T01:27:25;6.93;;;1.92;;
50549;SDS011;36505;52.512;13.460;2022-07-18T01:29:51;4.50;;;1.58;;
50549;SDS011;36505;52.512;13.460;2022-07-18T01:32:18;5.25;;;1.98;;
50549;SDS011;36505;52.512;13.460;2022-07-18T01:34:45;5.10;;;2.20;;
50549;SDS011;36505;52.512;13.460;2022-07-18T01:37:11;5.30;;;1.92;;
50549;SDS011;36505;52.512;13.460;2022-07-18T01:39:36;5.13;;;1.75;;
50549;SDS011;36505;52.512;13.460;2022-07-18T01:42:03;7.07;;;2.15;;
50549;SDS011;36505;52.512;13.460;2022-07-18T01:44:30;4.80;;;1.80;;
50549;SDS011;36505;52.512;13.460;2022-07-18T01:46:56;8.00;;;2.35;;
50549;SDS011;36505;52.512;13.460;2022-07-18T01:49:22;5.70;;;1.80;;
50549;SDS011;36505;52.512;13.460;2022-07-18T01:51:49;4.97;;;1.40;;
50549;SDS011;36505;52.512;13.460;2022-07-18T01:54:15;4.28;;;1.70;;
50549;SDS011;36505;52.512;13.460;2022-07-18T01:56:41;6.38;;;2.13;;
50549;SDS011;36505;52.512;13.460;2022-07-18T01:59:07;6.82;;;1.95;;
50549;SDS011;36505;52.512;13.460;2022-07-18T02:01:32;6.60;;;2.20;;
50549;SDS011;36505;52.512;13.460;2022-07-18T02:03:57;3.85;;;2.10;;
50549;SDS011;36505;52.512;13.460;2022-07-18T02:06:23;6.97;;;1.92;;
50549;SDS011;36505;52.512;13.460;2022-07-18T02:08:48;6.00;;;2.33;;
50549;SDS011;36505;52.512;13.460;2022-07-18T02:11:14;7.57;;;2.03;;
50549;SDS011;36505;52.512;13.460;2022-07-18T02:13:39;4.82;;;1.90;;
50549;SDS011;36505;52.512;13.460;2022-07-18T02:16:05;4.32;;;1.92;;
50549;SDS011;36505;52.512;13.460;2022-07-18T02:18:31;5.75;;;2.00;;
50549;SDS011;36505;52.512;13.460;2022-07-18T02:21:00;5.60;;;2.03;;
50549;SDS011;36505;52.512;13.460;2022-07-18T02:23:26;7.07;;;2.30;;
50549;SDS011;36505;52.512;13.460;2022-07-18T02:25:51;6.85;;;1.73;;
50549;SDS011;36505;52.512;13.460;2022-07-18T02:28:17;3.92;;;1.67;;
50549;SDS011;36505;52.512;13.460;2022-07-18T02:30:42;3.65;;;1.75;;
50549;SDS011;36505;52.512;13.460;2022-07-18T02:33:08;5.28;;;1.60;;
50549;SDS011;36505;52.512;13.460;2022-07-18T02:35:33;5.35;;;2.17;;
50549;SDS011;36505;52.512;13.460;2022-07-18T02:37:58;9.55;;;2.15;;
50549;SDS011;36505;52.512;13.460;2022-07-18T02:40:24;7.53;;;1.95;;
50549;SDS011;36505;52.512;13.460;2022-07-18T02:42:49;5.43;;;2.38;;
50549;SDS011;36505;52.512;13.460;2022-07-18T02:45:14;7.15;;;2.05;;
50549;SDS011;36505;52.512;13.460;2022-07-18T02:47:40;4.47;;;1.90;;
50549;SDS011;36505;52.512;13.460;2022-07-18T02:50:05;5.82;;;1.75;;
50549;SDS011;36505;52.512;13.460;2022-07-18T02:52:31;3.55;;;1.65;;
50549;SDS011;36505;52.512;13.460;2022-07-18T02:54:57;10.18;;;1.80;;
50549;SDS011;36505;52.512;13.460;2022-07-18T02:57:25;3.83;;;1.73;;
50549;SDS011;36505;52.512;13.460;2022-07-18T02:59:51;6.47;;;2.20;;
50549;SDS011;36505;52.512;13.460;2022-07-18T03:02:16;6.80;;;1.92;;
50549;SDS011;36505;52.512;13.460;2022-07-18T03:04:41;5.15;;;1.45;;
50549;SDS011;36505;52.512;13.460;2022-07-18T03:07:07;5.20;;;1.70;;
50549;SDS011;36505;52.512;13.460;2022-07-18T03:09:32;5.95;;;1.60;;
50549;SDS011;36505;52.512;13.460;2022-07-18T03:11:57;5.43;;;1.67;;
50549;SDS011;36505;52.512;13.460;2022-07-18T03:14:23;3.75;;;1.85;;
50549;SDS011;36505;52.512;13.460;2022-07-18T03:16:48;6.70;;;1.98;;
50549;SDS011;36505;52.512;13.460;2022-07-18T03:19:14;4.88;;;1.65;;
50549;SDS011;36505;52.512;13.460;2022-07-18T03:21:39;7.50;;;2.85;;
50549;SDS011;36505;52.512;13.460;2022-07-18T03:24:05;7.07;;;1.80;;
50549;SDS011;36505;52.512;13.460;2022-07-18T03:26:30;4.72;;;1.67;;
50549;SDS011;36505;52.512;13.460;2022-07-18T03:28:55;5.45;;;2.40;;
50549;SDS011;36505;52.512;13.460;2022-07-18T03:31:21;3.25;;;2.00;;
50549;SDS011;36505;52.512;13.460;2022-07-18T03:33:46;5.65;;;2.00;;
50549;SDS011;36505;52.512;13.460;2022-07-18T03:36:12;7.70;;;1.98;;
50549;SDS011;36505;52.512;13.460;2022-07-18T03:38:38;4.47;;;1.88;;
50549;SDS011;36505;52.512;13.460;2022-07-18T03:41:08;4.60;;;1.80;;
50549;SDS011;36505;52.512;13.460;2022-07-18T03:43:37;10.65;;;2.28;;
50549;SDS011;36505;52.512;13.460;2022-07-18T03:46:03;8.00;;;1.90;;
50549;SDS011;36505;52.512;13.460;2022-07-18T03:48:29;5.82;;;2.85;;
50549;SDS011;36505;52.512;13.460;2022-07-18T03:50:54;6.03;;;1.75;;
50549;SDS011;36505;52.512;13.460;2022-07-18T03:53:19;4.90;;;1.85;;
50549;SDS011;36505;52.512;13.460;2022-07-18T03:55:45;9.90;;;2.88;;
50549;SDS011;36505;52.512;13.460;2022-07-18T03:58:10;4.40;;;2.30;;
50549;SDS011;36505;52.512;13.460;2022-07-18T04:00:36;5.35;;;1.98;;
50549;SDS011;36505;52.512;13.460;2022-07-18T04:03:01;9.35;;;2.67;;
50549;SDS011;36505;52.512;13.460;2022-07-18T04:05:27;6.07;;;2.25;;
50549;SDS011;36505;52.512;13.460;2022-07-18T04:07:52;10.43;;;2.42;;
50549;SDS011;36505;52.512;13.460;2022-07-18T04:10:18;3.42;;;1.95;;
50549;SDS011;36505;52.512;13.460;2022-07-18T04:12:44;7.80;;;2.22;;
50549;SDS011;36505;52.512;13.460;2022-07-18T04:15:12;5.95;;;1.88;;
50549;SDS011;36505;52.512;13.460;2022-07-18T04:17:37;9.38;;;2.60;;
50549;SDS011;36505;52.512;13.460;2022-07-18T04:20:03;3.80;;;1.52;;
50549;SDS011;36505;52.512;13.460;2022-07-18T04:22:28;4.93;;;2.50;;
50549;SDS011;36505;52.512;13.460;2022-07-18T04:24:54;4.97;;;1.95;;
50549;SDS011;36505;52.512;13.460;2022-07-18T04:27:19;3.42;;;2.05;;
50549;SDS011;36505;52.512;13.460;2022-07-18T04:29:44;5.30;;;2.13;;
50549;SDS011;36505;52.512;13.460;2022-07-18T04:32:10;6.55;;;2.05;;
50549;SDS011;36505;52.512;13.460;2022-07-18T04:34:35;2.70;;;1.42;;
50549;SDS011;36505;52.512;13.460;2022-07-18T04:37:00;6.65;;;2.00;;
50549;SDS011;36505;52.512;13.460;2022-07-18T04:39:26;5.40;;;2.30;;
50549;SDS011;36505;52.512;13.460;2022-07-18T04:41:51;4.28;;;1.80;;
50549;SDS011;36505;52.512;13.460;2022-07-18T04:44:17;5.60;;;2.25;;
50549;SDS011;36505;52.512;13.460;2022-07-18T04:46:42;7.63;;;2.35;;
50549;SDS011;36505;52.512;13.460;2022-07-18T04:49:07;5.05;;;1.92;;
50549;SDS011;36505;52.512;13.460;2022-07-18T04:51:33;8.38;;;2.28;;
50549;SDS011;36505;52.512;13.460;2022-07-18T04:53:58;6.50;;;1.70;;
50549;SDS011;36505;52.512;13.460;2022-07-18T04:56:24;3.45;;;1.90;;
50549;SDS011;36505;52.512;13.460;2022-07-18T04:58:49;4.68;;;2.20;;
50549;SDS011;36505;52.512;13.460;2022-07-18T05:01:15;7.15;;;3.45;;
50549;SDS011;36505;52.512;13.460;2022-07-18T05:03:40;9.93;;;2.47;;
50549;SDS011;36505;52.512;13.460;2022-07-18T05:06:06;6.63;;;1.98;;
50549;SDS011;36505;52.512;13.460;2022-07-18T05:08:31;8.88;;;2.60;;
50549;SDS011;36505;52.512;13.460;2022-07-18T05:10:57;6.05;;;1.92;;
50549;SDS011;36505;52.512;13.460;2022-07-18T05:13:22;4.20;;;2.40;;
50549;SDS011;36505;52.512;13.460;2022-07-18T05:15:48;4.03;;;1.85;;
50549;SDS011;36505;52.512;13.460;2022-07-18T05:18:13;4.28;;;1.60;;
50549;SDS011;36505;52.512;13.460;2022-07-18T05:20:39;6.45;;;2.33;;
50549;SDS011;36505;52.512;13.460;2022-07-18T05:23:05;10.00;;;2.85;;
50549;SDS011;36505;52.512;13.460;2022-07-18T05:25:30;7.53;;;2.40;;
50549;SDS011;36505;52.512;13.460;2022-07-18T05:27:56;9.07;;;2.17;;
50549;SDS011;36505;52.512;13.460;2022-07-18T05:30:22;9.23;;;3.72;;
50549;SDS011;36505;52.512;13.460;2022-07-18T05:32:48;7.97;;;3.50;;
50549;SDS011;36505;52.512;13.460;2022-07-18T05:35:14;8.77;;;3.10;;
50549;SDS011;36505;52.512;13.460;2022-07-18T05:37:40;6.93;;;2.53;;
50549;SDS011;36505;52.512;13.460;2022-07-18T05:40:07;8.02;;;2.42;;
50549;SDS011;36505;52.512;13.460;2022-07-18T05:42:34;9.45;;;3.17;;
50549;SDS011;36505;52.512;13.460;2022-07-18T05:45:00;10.05;;;2.75;;
50549;SDS011;36505;52.512;13.460;2022-07-18T05:47:26;7.47;;;2.80;;
50549;SDS011;36505;52.512;13.460;2022-07-18T05:49:51;16.30;;;3.28;;
50549;SDS011;36505;52.512;13.460;2022-07-18T05:52:16;14.43;;;5.68;;
50549;SDS011;36505;52.512;13.460;2022-07-18T05:54:42;6.20;;;2.30;;
50549;SDS011;36505;52.512;13.460;2022-07-18T05:57:07;11.05;;;3.00;;
50549;SDS011;36505;52.512;13.460;2022-07-18T05:59:33;11.25;;;3.05;;
50549;SDS011;36505;52.512;13.460;2022-07-18T06:01:58;13.73;;;3.05;;
50549;SDS011;36505;52.512;13.460;2022-07-18T06:04:24;8.25;;;3.03;;
50549;SDS011;36505;52.512;13.460;2022-07-18T06:06:49;8.52;;;3.22;;
50549;SDS011;36505;52.512;13.460;2022-07-18T06:09:15;8.15;;;2.72;;
50549;SDS011;36505;52.512;13.460;2022-07-18T06:11:42;8.65;;;3.00;;
50549;SDS011;36505;52.512;13.460;2022-07-18T06:14:07;10.07;;;3.30;;
50549;SDS011;36505;52.512;13.460;2022-07-18T06:16:33;6.88;;;2.63;;
50549;SDS011;36505;52.512;13.460;2022-07-18T06:18:58;9.90;;;3.25;;
50549;SDS011;36505;52.512;13.460;2022-07-18T06:21:24;14.77;;;2.15;;
50549;SDS011;36505;52.512;13.460;2022-07-18T06:23:50;11.02;;;2.72;;
50549;SDS011;36505;52.512;13.460;2022-07-18T06:26:15;13.10;;;2.85;;
50549;SDS011;36505;52.512;13.460;2022-07-18T06:28:41;10.90;;;2.40;;
50549;SDS011;36505;52.512;13.460;2022-07-18T06:31:06;7.68;;;2.08;;
50549;SDS011;36505;52.512;13.460;2022-07-18T06:33:32;7.80;;;2.58;;
50549;SDS011;36505;52.512;13.460;2022-07-18T06:35:57;8.35;;;3.03;;
50549;SDS011;36505;52.512;13.460;2022-07-18T06:38:23;8.10;;;2.25;;
50549;SDS011;36505;52.512;13.460;2022-07-18T06:40:48;10.65;;;2.78;;
50549;SDS011;36505;52.512;13.460;2022-07-18T06:43:14;8.77;;;2.53;;
50549;SDS011;36505;52.512;13.460;2022-07-18T06:45:44;12.15;;;6.47;;
50549;SDS011;36505;52.512;13.460;2022-07-18T06:48:10;14.48;;;2.95;;
50549;SDS011;36505;52.512;13.460;2022-07-18T06:50:36;9.07;;;2.95;;
50549;SDS011;36505;52.512;13.460;2022-07-18T06:53:01;8.27;;;3.90;;
50549;SDS011;36505;52.512;13.460;2022-07-18T06:55:27;7.47;;;4.28;;
50549;SDS011;36505;52.512;13.460;2022-07-18T06:57:52;7.25;;;2.42;;
50549;SDS011;36505;52.512;13.460;2022-07-18T07:00:17;8.95;;;2.95;;
50549;SDS011;36505;52.512;13.460;2022-07-18T07:02:44;9.52;;;3.13;;
50549;SDS011;36505;52.512;13.460;2022-07-18T07:05:12;5.18;;;1.90;;
50549;SDS011;36505;52.512;13.460;2022-07-18T07:07:42;6.50;;;2.45;;
50549;SDS011;36505;52.512;13.460;2022-07-18T07:10:08;10.82;;;1.80;;
50549;SDS011;36505;52.512;13.460;2022-07-18T07:12:38;4.70;;;1.83;;
50549;SDS011;36505;52.512;13.460;2022-07-18T07:15:11;5.93;;;1.50;;
50549;SDS011;36505;52.512;13.460;2022-07-18T07:17:37;8.75;;;4.00;;
50549;SDS011;36505;52.512;13.460;2022-07-18T07:20:04;9.88;;;3.20;;
50549;SDS011;36505;52.512;13.460;2022-07-18T07:22:30;4.80;;;1.95;;
50549;SDS011;36505;52.512;13.460;2022-07-18T07:24:56;8.63;;;4.00;;
50549;SDS011;36505;52.512;13.460;2022-07-18T07:27:22;5.25;;;1.73;;
50549;SDS011;36505;52.512;13.460;2022-07-18T07:29:47;6.43;;;1.50;;
50549;SDS011;36505;52.512;13.460;2022-07-18T07:32:12;5.82;;;1.83;;
50549;SDS011;36505;52.512;13.460;2022-07-18T07:34:37;4.80;;;1.90;;
50549;SDS011;36505;52.512;13.460;2022-07-18T07:37:03;15.80;;;2.13;;
50549;SDS011;36505;52.512;13.460;2022-07-18T07:39:28;5.32;;;1.55;;
50549;SDS011;36505;52.512;13.460;2022-07-18T07:41:54;8.18;;;1.45;;
50549;SDS011;36505;52.512;13.460;2022-07-18T07:44:19;4.20;;;1.88;;
50549;SDS011;36505;52.512;13.460;2022-07-18T07:46:44;3.97;;;1.13;;
50549;SDS011;36505;52.512;13.460;2022-07-18T07:49:10;3.75;;;1.23;;
50549;SDS011;36505;52.512;13.460;2022-07-18T07:51:35;4.45;;;1.10;;
50549;SDS011;36505;52.512;13.460;2022-07-18T07:54:01;4.30;;;1.30;;
50549;SDS011;36505;52.512;13.460;2022-07-18T07:56:27;3.22;;;1.20;;
50549;SDS011;36505;52.512;13.460;2022-07-18T07:58:52;6.07;;;1.23;;
50549;SDS011;36505;52.512;13.460;2022-07-18T08:01:17;4.00;;;1.60;;
50549;SDS011;36505;52.512;13.460;2022-07-18T08:03:44;6.47;;;1.40;;
50549;SDS011;36505;52.512;13.460;2022-07-18T08:06:11;5.57;;;1.30;;
50549;SDS011;36505;52.512;13.460;2022-07-18T08:08:36;4.03;;;1.05;;
50549;SDS011;36505;52.512;13.460;2022-07-18T08:11:02;5.43;;;1.48;;
50549;SDS011;36505;52.512;13.460;2022-07-18T08:13:27;5.25;;;1.75;;
50549;SDS011;36505;52.512;13.460;2022-07-18T08:15:52;1.95;;;1.23;;
50549;SDS011;36505;52.512;13.460;2022-07-18T08:18:18;3.03;;;1.42;;
50549;SDS011;36505;52.512;13.460;2022-07-18T08:20:43;6.80;;;1.67;;
50549;SDS011;36505;52.512;13.460;2022-07-18T08:23:09;4.68;;;1.17;;
50549;SDS011;36505;52.512;13.460;2022-07-18T08:25:37;4.00;;;2.00;;
50549;SDS011;36505;52.512;13.460;2022-07-18T08:28:04;6.65;;;2.10;;
50549;SDS011;36505;52.512;13.460;2022-07-18T08:30:31;3.90;;;1.80;;
50549;SDS011;36505;52.512;13.460;2022-07-18T08:32:57;8.75;;;1.70;;
50549;SDS011;36505;52.512;13.460;2022-07-18T08:35:23;5.43;;;1.80;;
50549;SDS011;36505;52.512;13.460;2022-07-18T08:37:49;4.30;;;1.73;;
50549;SDS011;36505;52.512;13.460;2022-07-18T08:40:15;6.63;;;1.73;;
50549;SDS011;36505;52.512;13.460;2022-07-18T08:42:41;6.88;;;2.40;;
50549;SDS011;36505;52.512;13.460;2022-07-18T08:45:09;7.55;;;2.75;;
50549;SDS011;36505;52.512;13.460;2022-07-18T08:47:35;7.55;;;2.20;;
50549;SDS011;36505;52.512;13.460;2022-07-18T08:50:00;3.25;;;2.30;;
50549;SDS011;36505;52.512;13.460;2022-07-18T08:52:27;6.72;;;2.30;;
50549;SDS011;36505;52.512;13.460;2022-07-18T08:54:53;7.68;;;2.13;;
50549;SDS011;36505;52.512;13.460;2022-07-18T08:57:19;4.78;;;1.85;;
50549;SDS011;36505;52.512;13.460;2022-07-18T08:59:45;5.20;;;2.25;;
50549;SDS011;36505;52.512;13.460;2022-07-18T09:02:10;4.78;;;2.28;;
50549;SDS011;36505;52.512;13.460;2022-07-18T09:04:40;3.47;;;2.05;;
50549;SDS011;36505;52.512;13.460;2022-07-18T09:07:07;9.43;;;2.30;;
50549;SDS011;36505;52.512;13.460;2022-07-18T09:09:34;3.53;;;1.85;;
50549;SDS011;36505;52.512;13.460;2022-07-18T09:19:38;3.95;;;2.20;;
50549;SDS011;36505;52.512;13.460;2022-07-18T09:22:30;5.85;;;2.85;;
50549;SDS011;36505;52.512;13.460;2022-07-18T09:25:07;7.80;;;3.00;;
50549;SDS011;36505;52.512;13.460;2022-07-18T09:27:50;5.25;;;3.08;;
50549;SDS011;36505;52.512;13.460;2022-07-18T09:32:50;5.97;;;2.80;;
50549;SDS011;36505;52.512;13.460;2022-07-18T09:35:28;8.73;;;2.72;;
50549;SDS011;36505;52.512;13.460;2022-07-18T09:37:58;6.18;;;2.97;;
50549;SDS011;36505;52.512;13.460;2022-07-18T09:40:31;5.30;;;2.40;;
50549;SDS011;36505;52.512;13.460;2022-07-18T09:42:59;5.55;;;2.50;;
50549;SDS011;36505;52.512;13.460;2022-07-18T09:48:22;5.15;;;2.50;;
50549;SDS011;36505;52.512;13.460;2022-07-18T09:50:52;6.63;;;3.00;;
50549;SDS011;36505;52.512;13.460;2022-07-18T09:53:31;5.60;;;2.35;;
50549;SDS011;36505;52.512;13.460;2022-07-18T09:56:04;5.15;;;2.10;;
50549;SDS011;36505;52.512;13.460;2022-07-18T10:01:04;18.83;;;3.80;;
50549;SDS011;36505;52.512;13.460;2022-07-18T10:03:31;5.70;;;2.72;;
50549;SDS011;36505;52.512;13.460;2022-07-18T10:05:58;5.82;;;2.58;;
50549;SDS011;36505;52.512;13.460;2022-07-18T10:08:25;5.97;;;3.00;;
50549;SDS011;36505;52.512;13.460;2022-07-18T10:10:54;6.57;;;2.30;;
50549;SDS011;36505;52.512;13.460;2022-07-18T10:13:21;6.57;;;2.05;;
50549;SDS011;36505;52.512;13.460;2022-07-18T10:15:48;11.95;;;6.10;;
50549;SDS011;36505;52.512;13.460;2022-07-18T10:18:19;6.20;;;2.85;;
50549;SDS011;36505;52.512;13.460;2022-07-18T10:20:53;5.82;;;2.35;;
50549;SDS011;36505;52.512;13.460;2022-07-18T10:23:27;6.82;;;2.00;;
50549;SDS011;36505;52.512;13.460;2022-07-18T10:26:13;7.88;;;2.33;;
50549;SDS011;36505;52.512;13.460;2022-07-18T10:31:31;7.13;;;3.13;;
50549;SDS011;36505;52.512;13.460;2022-07-18T10:39:15;7.22;;;2.67;;
50549;SDS011;36505;52.512;13.460;2022-07-18T10:57:33;5.70;;;3.40;;
50549;SDS011;36505;52.512;13.460;2022-07-18T11:00:11;5.38;;;2.30;;
50549;SDS011;36505;52.512;13.460;2022-07-18T11:11:12;6.22;;;1.98;;
50549;SDS011;36505;52.512;13.460;2022-07-18T11:18:27;4.38;;;2.42;;
50549;SDS011;36505;52.512;13.460;2022-07-18T11:20:55;4.05;;;2.92;;
50549;SDS011;36505;52.512;13.460;2022-07-18T11:23:22;5.35;;;2.72;;
50549;SDS011;36505;52.512;13.460;2022-07-18T11:25:51;7.43;;;2.42;;
50549;SDS011;36505;52.512;13.460;2022-07-18T11:28:22;6.55;;;2.45;;
50549;SDS011;36505;52.512;13.460;2022-07-18T11:31:05;5.15;;;2.22;;
50549;SDS011;36505;52.512;13.460;2022-07-18T11:33:40;5.80;;;2.33;;
50549;SDS011;36505;52.512;13.460;2022-07-18T11:36:12;11.48;;;2.85;;
50549;SDS011;36505;52.512;13.460;2022-07-18T11:38:50;6.18;;;2.95;;
50549;SDS011;36505;52.512;13.460;2022-07-18T11:41:26;4.78;;;2.70;;
50549;SDS011;36505;52.512;13.460;2022-07-18T11:43:52;6.50;;;2.88;;
50549;SDS011;36505;52.512;13.460;2022-07-18T11:46:19;5.90;;;2.50;;
50549;SDS011;36505;52.512;13.460;2022-07-18T11:49:00;9.87;;;3.40;;
50549;SDS011;36505;52.512;13.460;2022-07-18T11:51:33;5.80;;;2.50;;
50549;SDS011;36505;52.512;13.460;2022-07-18T11:54:00;5.10;;;2.78;;
50549;SDS011;36505;52.512;13.460;2022-07-18T11:56:26;6.00;;;2.90;;
50549;SDS011;36505;52.512;13.460;2022-07-18T11:58:51;5.35;;;2.67;;
50549;SDS011;36505;52.512;13.460;2022-07-18T12:01:17;4.82;;;2.67;;
50549;SDS011;36505;52.512;13.460;2022-07-18T12:03:45;8.43;;;3.10;;
50549;SDS011;36505;52.512;13.460;2022-07-18T12:06:13;5.25;;;3.22;;
50549;SDS011;36505;52.512;13.460;2022-07-18T12:13:48;7.10;;;3.40;;
50549;SDS011;36505;52.512;13.460;2022-07-18T12:19:12;11.90;;;2.80;;
50549;SDS011;36505;52.512;13.460;2022-07-18T12:21:38;6.65;;;3.05;;
50549;SDS011;36505;52.512;13.460;2022-07-18T12:26:48;6.50;;;2.78;;
50549;SDS011;36505;52.512;13.460;2022-07-18T12:29:34;6.85;;;2.83;;
50549;SDS011;36505;52.512;13.460;2022-07-18T12:37:51;6.53;;;2.70;;
50549;SDS011;36505;52.512;13.460;2022-07-18T12:40:16;10.05;;;3.50;;
50549;SDS011;36505;52.512;13.460;2022-07-18T12:42:42;5.25;;;3.13;;
50549;SDS011;36505;52.512;13.460;2022-07-18T12:45:08;9.77;;;3.75;;
50549;SDS011;36505;52.512;13.460;2022-07-18T12:47:35;7.40;;;3.28;;
50549;SDS011;36505;52.512;13.460;2022-07-18T12:50:01;6.40;;;3.53;;
50549;SDS011;36505;52.512;13.460;2022-07-18T12:52:27;6.95;;;3.30;;
50549;SDS011;36505;52.512;13.460;2022-07-18T12:54:52;5.97;;;3.20;;
50549;SDS011;36505;52.512;13.460;2022-07-18T12:57:18;7.47;;;3.30;;
50549;SDS011;36505;52.512;13.460;2022-07-18T12:59:44;6.22;;;3.47;;
50549;SDS011;36505;52.512;13.460;2022-07-18T13:02:11;9.55;;;3.03;;
50549;SDS011;36505;52.512;13.460;2022-07-18T13:04:37;6.10;;;2.95;;
50549;SDS011;36505;52.512;13.460;2022-07-18T13:07:03;5.07;;;3.10;;
50549;SDS011;36505;52.512;13.460;2022-07-18T13:09:29;7.20;;;3.20;;
50549;SDS011;36505;52.512;13.460;2022-07-18T13:11:54;8.75;;;3.10;;
50549;SDS011;36505;52.512;13.460;2022-07-18T13:14:19;9.85;;;3.20;;
50549;SDS011;36505;52.512;13.460;2022-07-18T13:16:45;5.93;;;2.75;;
50549;SDS011;36505;52.512;13.460;2022-07-18T13:19:12;6.82;;;3.13;;
50549;SDS011;36505;52.512;13.460;2022-07-18T13:21:39;4.47;;;2.50;;
50549;SDS011;36505;52.512;13.460;2022-07-18T13:24:04;5.38;;;3.40;;
50549;SDS011;36505;52.512;13.460;2022-07-18T13:26:30;5.70;;;2.63;;
50549;SDS011;36505;52.512;13.460;2022-07-18T13:28:55;6.00;;;2.92;;
50549;SDS011;36505;52.512;13.460;2022-07-18T13:31:21;5.38;;;2.55;;
50549;SDS011;36505;52.512;13.460;2022-07-18T13:33:46;6.07;;;2.95;;
50549;SDS011;36505;52.512;13.460;2022-07-18T13:36:12;4.80;;;2.88;;
50549;SDS011;36505;52.512;13.460;2022-07-18T13:38:38;5.03;;;2.25;;
50549;SDS011;36505;52.512;13.460;2022-07-18T13:41:04;7.28;;;2.72;;
50549;SDS011;36505;52.512;13.460;2022-07-18T13:43:29;6.20;;;3.13;;
50549;SDS011;36505;52.512;13.460;2022-07-18T13:45:55;4.95;;;2.13;;
50549;SDS011;36505;52.512;13.460;2022-07-18T13:48:20;6.22;;;2.30;;
50549;SDS011;36505;52.512;13.460;2022-07-18T13:50:45;5.30;;;2.63;;
50549;SDS011;36505;52.512;13.460;2022-07-18T13:53:11;5.15;;;2.90;;
50549;SDS011;36505;52.512;13.460;2022-07-18T13:55:36;4.75;;;3.03;;
50549;SDS011;36505;52.512;13.460;2022-07-18T13:58:02;7.80;;;3.25;;
50549;SDS011;36505;52.512;13.460;2022-07-18T14:00:27;7.75;;;2.75;;
50549;SDS011;36505;52.512;13.460;2022-07-18T14:02:53;3.63;;;2.40;;
50549;SDS011;36505;52.512;13.460;2022-07-18T14:05:18;6.10;;;2.35;;
50549;SDS011;36505;52.512;13.460;2022-07-18T14:07:44;5.68;;;2.67;;
50549;SDS011;36505;52.512;13.460;2022-07-18T14:10:11;5.25;;;2.95;;
50549;SDS011;36505;52.512;13.460;2022-07-18T14:12:38;6.75;;;2.95;;
50549;SDS011;36505;52.512;13.460;2022-07-18T14:15:04;7.95;;;3.08;;
50549;SDS011;36505;52.512;13.460;2022-07-18T14:17:30;5.63;;;2.55;;
50549;SDS011;36505;52.512;13.460;2022-07-18T14:19:57;5.75;;;2.60;;
50549;SDS011;36505;52.512;13.460;2022-07-18T14:22:23;9.13;;;3.00;;
50549;SDS011;36505;52.512;13.460;2022-07-18T14:24:48;5.45;;;2.50;;
50549;SDS011;36505;52.512;13.460;2022-07-18T14:27:13;4.18;;;2.38;;
50549;SDS011;36505;52.512;13.460;2022-07-18T14:29:39;6.28;;;2.70;;
50549;SDS011;36505;52.512;13.460;2022-07-18T14:32:04;5.38;;;2.70;;
50549;SDS011;36505;52.512;13.460;2022-07-18T14:34:30;4.95;;;2.60;;
50549;SDS011;36505;52.512;13.460;2022-07-18T14:36:55;5.68;;;3.00;;
50549;SDS011;36505;52.512;13.460;2022-07-18T14:39:21;10.70;;;2.80;;
50549;SDS011;36505;52.512;13.460;2022-07-18T14:41:46;7.38;;;2.67;;
50549;SDS011;36505;52.512;13.460;2022-07-18T14:44:11;4.60;;;2.70;;
50549;SDS011;36505;52.512;13.460;2022-07-18T14:46:37;5.95;;;3.08;;
50549;SDS011;36505;52.512;13.460;2022-07-18T14:49:02;6.18;;;2.97;;
50549;SDS011;36505;52.512;13.460;2022-07-18T14:51:27;5.47;;;3.22;;
50549;SDS011;36505;52.512;13.460;2022-07-18T14:53:53;5.78;;;3.20;;
50549;SDS011;36505;52.512;13.460;2022-07-18T14:56:18;6.20;;;3.17;;
50549;SDS011;36505;52.512;13.460;2022-07-18T14:58:43;6.60;;;3.10;;
50549;SDS011;36505;52.512;13.460;2022-07-18T15:01:09;5.43;;;3.15;;
50549;SDS011;36505;52.512;13.460;2022-07-18T15:03:34;7.25;;;3.10;;
50549;SDS011;36505;52.512;13.460;2022-07-18T15:05:59;5.13;;;2.95;;
50549;SDS011;36505;52.512;13.460;2022-07-18T15:08:25;7.22;;;3.05;;
50549;SDS011;36505;52.512;13.460;2022-07-18T15:10:50;5.13;;;3.30;;
50549;SDS011;36505;52.512;13.460;2022-07-18T15:13:16;5.80;;;2.85;;
50549;SDS011;36505;52.512;13.460;2022-07-18T15:15:41;7.78;;;3.17;;
50549;SDS011;36505;52.512;13.460;2022-07-18T15:18:06;8.50;;;5.03;;
50549;SDS011;36505;52.512;13.460;2022-07-18T15:20:31;6.95;;;4.03;;
50549;SDS011;36505;52.512;13.460;2022-07-18T15:22:57;6.70;;;3.45;;
50549;SDS011;36505;52.512;13.460;2022-07-18T15:25:22;5.03;;;3.10;;
50549;SDS011;36505;52.512;13.460;2022-07-18T15:27:48;6.30;;;3.50;;
50549;SDS011;36505;52.512;13.460;2022-07-18T15:30:13;9.57;;;3.22;;
50549;SDS011;36505;52.512;13.460;2022-07-18T15:32:38;6.93;;;3.10;;
50549;SDS011;36505;52.512;13.460;2022-07-18T15:35:04;8.00;;;3.80;;
50549;SDS011;36505;52.512;13.460;2022-07-18T15:37:30;9.02;;;4.38;;
50549;SDS011;36505;52.512;13.460;2022-07-18T15:39:55;7.75;;;4.32;;